Time;durP1;ratioP1;P1;durP2;ratioP2;P2;SDS_P1;SDS_P2;PMS_P1;PMS_P2;Temp;Humidity;BMP_temperature;BMP_pressure;BME280_temperature;BME280_humidity;BME280_pressure;Samples;Min_cycle;Max_cycle;Signal;HPM_P1;HPM_P2
2023/04/01 00:00:19;;;;;;;1.83;0.60;;;11.70;99.90;;;;;;4970301;28;21046;-74
2023/04/01 00:02:45;;;;;;;1.15;0.60;;;11.70;99.90;;;;;;4990981;28;20046;-74
2023/04/01 00:05:11;;;;;;;1.38;0.52;;;11.70;99.90;;;;;;4988338;28;20049;-74
2023/04/01 00:07:38;;;;;;;1.02;0.40;;;11.60;99.90;;;;;;4992178;28;20074;-73
2023/04/01 00:10:06;;;;;;;1.67;0.70;;;11.60;99.90;;;;;;4991250;28;20069;-75
2023/04/01 00:12:31;;;;;;;1.20;0.70;;;11.60;99.90;;;;;;4985334;28;20525;-73
2023/04/01 00:14:57;;;;;;;0.75;0.38;;;11.70;99.90;;;;;;4992574;28;20038;-73
2023/04/01 00:17:23;;;;;;;1.20;0.50;;;11.70;99.90;;;;;;4992491;28;20034;-73
2023/04/01 00:19:49;;;;;;;1.23;0.80;;;11.70;99.90;;;;;;4992698;28;20049;-76
2023/04/01 00:22:15;;;;;;;2.08;0.80;;;11.60;99.90;;;;;;4994213;28;20048;-65
2023/04/01 00:24:41;;;;;;;1.30;0.80;;;11.60;99.90;;;;;;4991010;28;20501;-65
2023/04/01 00:27:07;;;;;;;6.18;0.88;;;11.60;99.90;;;;;;4989905;28;20133;-65
2023/04/01 00:29:34;;;;;;;0.82;0.60;;;11.60;99.90;;;;;;4987640;28;20081;-65
2023/04/01 00:32:00;;;;;;;3.97;0.70;;;11.60;99.90;;;;;;4979652;28;20044;-64
2023/04/01 00:34:26;;;;;;;1.73;0.80;;;11.70;99.90;;;;;;4990151;28;20030;-64
2023/04/01 00:36:53;;;;;;;1.75;0.60;;;11.70;99.90;;;;;;4992221;28;20112;-64
2023/04/01 00:39:21;;;;;;;2.65;0.90;;;11.60;99.90;;;;;;4985158;28;20034;-64
2023/04/01 00:41:47;;;;;;;1.92;0.80;;;11.50;99.90;;;;;;4988697;28;20033;-64
2023/04/01 00:44:23;;;;;;;2.13;0.70;;;11.50;99.90;;;;;;4987493;28;20081;-64
2023/04/01 00:46:49;;;;;;;1.30;0.75;;;11.30;99.90;;;;;;5005815;28;20680;-64
2023/04/01 00:49:17;;;;;;;2.28;0.85;;;11.20;99.90;;;;;;4985448;28;20038;-64
2023/04/01 00:51:47;;;;;;;2.67;0.95;;;11.20;99.90;;;;;;4994435;28;20509;-64
2023/04/01 00:54:15;;;;;;;2.20;0.70;;;11.10;99.90;;;;;;4989056;28;20470;-64
2023/04/01 00:56:48;;;;;;;2.25;0.90;;;11.10;99.90;;;;;;4984094;28;20038;-64
2023/04/01 00:59:19;;;;;;;2.30;0.75;;;11.00;99.90;;;;;;4985672;28;20076;-64
2023/04/01 01:01:45;;;;;;;3.35;0.80;;;11.10;99.90;;;;;;4981989;28;20574;-65
2023/04/01 01:04:29;;;;;;;1.38;0.68;;;11.10;99.90;;;;;;4986629;28;20041;-65
2023/04/01 01:06:55;;;;;;;1.58;0.80;;;11.20;99.90;;;;;;4990188;28;20050;-64
2023/04/01 01:09:59;;;;;;;1.35;0.80;;;11.20;99.90;;;;;;4989094;28;20531;-64
2023/04/01 01:12:24;;;;;;;2.05;0.90;;;11.30;99.90;;;;;;4978528;28;20158;-64
2023/04/01 01:15:28;;;;;;;2.55;0.98;;;11.30;99.90;;;;;;4984716;28;20511;-63
2023/04/01 01:18:03;;;;;;;0.65;0.60;;;11.30;99.90;;;;;;4980108;28;20062;-64
2023/04/01 01:20:49;;;;;;;2.60;1.05;;;11.20;99.90;;;;;;4989930;28;20053;-64
2023/04/01 01:23:46;;;;;;;0.88;0.75;;;11.20;99.90;;;;;;4987315;28;20648;-65
2023/04/01 01:26:18;;;;;;;1.10;0.73;;;11.30;99.90;;;;;;4986798;28;20113;-66
2023/04/01 01:28:59;;;;;;;0.60;0.47;;;11.30;99.90;;;;;;4983848;28;20035;-66
2023/04/01 01:31:44;;;;;;;1.08;0.85;;;11.30;99.90;;;;;;4981407;28;20636;-67
2023/04/01 01:34:38;;;;;;;1.60;0.80;;;11.40;99.90;;;;;;4978984;28;20775;-67
2023/04/01 01:37:14;;;;;;;2.60;0.80;;;11.40;99.90;;;;;;4986172;28;20505;-67
2023/04/01 01:39:44;;;;;;;0.80;0.68;;;11.40;99.90;;;;;;4983783;28;20449;-67
2023/04/01 01:42:14;;;;;;;1.20;0.80;;;11.40;99.90;;;;;;4981495;28;20038;-73
2023/04/01 01:44:41;;;;;;;2.42;0.60;;;11.40;99.90;;;;;;4985320;28;20038;-67
2023/04/01 01:47:07;;;;;;;2.47;0.80;;;11.60;99.90;;;;;;4980321;28;20759;-67
2023/04/01 01:49:35;;;;;;;3.50;0.93;;;11.60;99.90;;;;;;4969603;28;21366;-68
2023/04/01 01:52:01;;;;;;;1.05;0.80;;;11.50;99.90;;;;;;4982079;28;20038;-67
2023/04/01 01:54:27;;;;;;;1.25;0.63;;;11.50;99.90;;;;;;4984220;28;20869;-67
2023/04/01 01:56:59;;;;;;;0.85;0.73;;;11.50;99.90;;;;;;4985181;28;20388;-77
2023/04/01 01:59:26;;;;;;;2.75;0.63;;;11.50;99.90;;;;;;4979307;28;20022;-76
2023/04/01 02:01:56;;;;;;;0.88;0.70;;;11.40;99.90;;;;;;4989996;28;20037;-76
2023/04/01 02:04:23;;;;;;;3.60;0.68;;;11.40;99.90;;;;;;4987264;28;20038;-77
2023/04/01 02:07:30;;;;;;;1.00;0.50;;;11.30;99.90;;;;;;4986443;28;20045;-75
2023/04/01 02:09:56;;;;;;;0.60;0.60;;;11.30;99.90;;;;;;4989014;28;20029;-75
2023/04/01 02:12:24;;;;;;;1.70;0.90;;;11.20;99.90;;;;;;4983355;28;20132;-74
2023/04/01 02:15:02;;;;;;;1.58;0.85;;;11.20;99.90;;;;;;4976741;28;20030;-75
2023/04/01 02:17:30;;;;;;;1.45;0.90;;;11.10;99.90;;;;;;4988062;28;20070;-67
2023/04/01 02:20:09;;;;;;;1.60;0.80;;;11.10;99.90;;;;;;4988763;28;20033;-67
2023/04/01 02:22:41;;;;;;;1.13;0.90;;;11.20;99.90;;;;;;4987926;28;20038;-68
2023/04/01 02:25:22;;;;;;;1.50;0.80;;;11.10;99.90;;;;;;4986753;28;20875;-68
2023/04/01 02:27:48;;;;;;;2.20;0.90;;;11.20;99.90;;;;;;4990371;28;20069;-67
2023/04/01 02:30:17;;;;;;;1.33;0.93;;;11.10;99.90;;;;;;4988775;28;20113;-68
2023/04/01 02:32:44;;;;;;;2.10;1.27;;;11.10;99.90;;;;;;4988804;28;20384;-67
2023/04/01 02:35:13;;;;;;;1.90;1.05;;;11.10;99.90;;;;;;4992009;28;20390;-68
2023/04/01 02:37:42;;;;;;;1.73;1.05;;;11.10;99.90;;;;;;4988711;28;20038;-68
2023/04/01 02:40:09;;;;;;;2.17;0.80;;;11.10;99.90;;;;;;4989258;28;20030;-68
2023/04/01 02:42:35;;;;;;;0.98;0.68;;;11.20;99.90;;;;;;4981420;28;20038;-68
2023/04/01 02:45:01;;;;;;;2.97;0.73;;;11.20;99.90;;;;;;4989511;28;20030;-68
2023/04/01 02:47:26;;;;;;;0.82;0.60;;;11.10;99.90;;;;;;4988529;28;20038;-68
2023/04/01 02:49:57;;;;;;;1.27;0.60;;;11.10;99.90;;;;;;4988722;28;20057;-68
2023/04/01 02:52:29;;;;;;;0.50;0.50;;;11.20;99.90;;;;;;4993359;28;20233;-69
2023/04/01 02:54:56;;;;;;;1.63;0.63;;;11.20;99.90;;;;;;4994842;28;20030;-76
2023/04/01 02:57:23;;;;;;;1.33;0.52;;;11.30;99.90;;;;;;4993855;28;20038;-76
2023/04/01 02:59:49;;;;;;;2.40;0.73;;;11.30;99.90;;;;;;4994029;28;20092;-76
2023/04/01 03:02:15;;;;;;;1.70;0.60;;;11.30;99.90;;;;;;4994769;28;20057;-76
2023/04/01 03:04:41;;;;;;;1.63;0.70;;;11.30;99.90;;;;;;4994348;28;20038;-77
2023/04/01 03:07:09;;;;;;;1.13;0.70;;;11.20;99.90;;;;;;4990599;28;20049;-76
2023/04/01 03:09:35;;;;;;;1.35;0.82;;;11.10;99.90;;;;;;4991753;28;20041;-76
2023/04/01 03:12:01;;;;;;;1.13;0.52;;;11.20;99.90;;;;;;4993649;28;20047;-76
2023/04/01 03:14:27;;;;;;;0.65;0.60;;;11.20;99.90;;;;;;4991075;28;20045;-76
2023/04/01 03:16:52;;;;;;;0.60;0.60;;;11.20;99.90;;;;;;4994147;28;20639;-75
2023/04/01 03:19:18;;;;;;;1.00;0.60;;;11.10;99.90;;;;;;4994244;28;20134;-76
2023/04/01 03:21:44;;;;;;;2.60;0.70;;;11.10;99.90;;;;;;4992090;28;20686;-76
2023/04/01 03:24:09;;;;;;;3.90;0.70;;;11.10;99.90;;;;;;4977351;28;20497;-75
2023/04/01 03:26:35;;;;;;;0.70;0.70;;;11.10;99.90;;;;;;4995116;28;20122;-76
2023/04/01 03:29:01;;;;;;;1.02;0.60;;;11.10;99.90;;;;;;4988978;28;20038;-75
2023/04/01 03:31:26;;;;;;;2.55;1.05;;;11.00;99.90;;;;;;4994683;28;20030;-75
2023/04/01 03:33:52;;;;;;;0.82;0.80;;;11.10;99.90;;;;;;4997104;28;20057;-68
2023/04/01 03:36:18;;;;;;;2.00;0.70;;;11.10;99.90;;;;;;4994882;28;20104;-69
2023/04/01 03:38:44;;;;;;;0.70;0.52;;;11.10;99.90;;;;;;4993756;28;20033;-68
2023/04/01 03:41:17;;;;;;;0.95;0.70;;;11.10;99.90;;;;;;4992848;28;20645;-69
2023/04/01 03:43:44;;;;;;;1.88;1.05;;;11.10;99.90;;;;;;4980200;28;20086;-69
2023/04/01 03:46:10;;;;;;;0.65;0.43;;;11.10;99.90;;;;;;4993943;28;20034;-68
2023/04/01 03:48:35;;;;;;;1.27;0.68;;;11.10;99.90;;;;;;4998230;28;20041;-69
2023/04/01 03:51:01;;;;;;;1.40;0.40;;;11.10;99.90;;;;;;4992927;28;20561;-68
2023/04/01 03:53:26;;;;;;;0.88;0.50;;;11.20;99.90;;;;;;4994885;28;20659;-69
2023/04/01 03:55:53;;;;;;;1.10;0.70;;;11.10;99.90;;;;;;4990953;28;20777;-70
2023/04/01 03:58:19;;;;;;;2.45;0.75;;;11.10;99.90;;;;;;4985546;28;20104;-67
2023/04/01 04:00:45;;;;;;;2.03;0.70;;;11.10;99.90;;;;;;4991212;28;20038;-68
2023/04/01 04:03:11;;;;;;;0.90;0.50;;;11.00;99.90;;;;;;4990586;28;20049;-68
2023/04/01 04:05:37;;;;;;;2.03;0.80;;;10.90;99.90;;;;;;4994557;28;20125;-68
2023/04/01 04:08:02;;;;;;;1.90;0.77;;;10.90;99.90;;;;;;4992879;28;20161;-68
2023/04/01 04:10:29;;;;;;;2.13;0.60;;;10.80;99.90;;;;;;4989418;28;20435;-68
2023/04/01 04:12:55;;;;;;;1.70;0.60;;;10.80;99.90;;;;;;4964597;28;20067;-76
2023/04/01 04:15:22;;;;;;;1.50;0.70;;;10.70;99.90;;;;;;4967540;28;20155;-77
2023/04/01 04:17:48;;;;;;;1.05;0.57;;;10.60;99.90;;;;;;4971176;28;20039;-76
2023/04/01 04:20:13;;;;;;;1.00;0.65;;;10.60;99.90;;;;;;4975664;28;20038;-75
2023/04/01 04:22:39;;;;;;;1.33;0.60;;;10.60;99.90;;;;;;4969439;28;20042;-75
2023/04/01 04:25:05;;;;;;;1.65;0.80;;;10.60;99.90;;;;;;4962270;28;20550;-76
2023/04/01 04:27:31;;;;;;;0.75;0.45;;;10.60;99.90;;;;;;4973239;28;20046;-76
2023/04/01 04:29:57;;;;;;;1.92;1.08;;;10.60;99.90;;;;;;4964505;28;20123;-76
2023/04/01 04:32:23;;;;;;;2.05;0.85;;;10.60;99.90;;;;;;4972512;28;21847;-75
2023/04/01 04:34:48;;;;;;;1.88;0.90;;;10.50;99.90;;;;;;4972497;28;20239;-68
2023/04/01 04:37:14;;;;;;;2.67;0.70;;;10.40;99.90;;;;;;4966780;28;20046;-68
2023/04/01 04:39:39;;;;;;;1.08;0.82;;;10.40;99.90;;;;;;4971753;28;20061;-68
2023/04/01 04:42:05;;;;;;;2.22;0.82;;;10.40;99.90;;;;;;4964856;28;22798;-68
2023/04/01 04:44:31;;;;;;;0.98;0.70;;;10.40;99.90;;;;;;4966396;28;20034;-68
2023/04/01 04:46:57;;;;;;;2.03;0.95;;;10.40;99.90;;;;;;4968113;28;20518;-68
2023/04/01 04:49:22;;;;;;;1.33;0.82;;;10.50;99.90;;;;;;4969201;28;20034;-74
2023/04/01 04:51:48;;;;;;;0.77;0.73;;;10.50;99.90;;;;;;4971242;28;20207;-75
2023/04/01 04:54:14;;;;;;;2.88;0.75;;;10.50;99.90;;;;;;4970058;28;20046;-74
2023/04/01 04:56:40;;;;;;;1.58;0.70;;;10.50;99.90;;;;;;4973976;28;20455;-75
2023/04/01 04:59:06;;;;;;;1.35;0.73;;;10.40;99.90;;;;;;4965007;28;20026;-73
2023/04/01 05:01:33;;;;;;;2.22;0.82;;;10.30;99.90;;;;;;4960883;28;20325;-74
2023/04/01 05:03:59;;;;;;;1.98;1.00;;;10.40;99.90;;;;;;4969526;28;20480;-74
2023/04/01 05:06:25;;;;;;;2.33;1.02;;;10.40;99.90;;;;;;4965850;28;20589;-74
2023/04/01 05:08:51;;;;;;;1.73;0.80;;;10.50;99.90;;;;;;4969334;28;20038;-75
2023/04/01 05:11:18;;;;;;;1.48;0.80;;;10.50;99.90;;;;;;4975870;28;20045;-74
2023/04/01 05:13:45;;;;;;;1.05;0.65;;;10.60;99.90;;;;;;4990700;28;20114;-75
2023/04/01 05:16:13;;;;;;;2.63;0.93;;;10.70;99.90;;;;;;4987247;28;20038;-75
2023/04/01 05:18:39;;;;;;;2.38;1.20;;;10.70;99.90;;;;;;4987874;28;20037;-74
2023/04/01 05:21:06;;;;;;;4.80;1.00;;;10.70;99.90;;;;;;4988280;28;20132;-78
2023/04/01 05:23:32;;;;;;;2.28;0.90;;;10.70;99.90;;;;;;4986048;28;20042;-76
2023/04/01 05:25:58;;;;;;;0.98;0.68;;;10.80;99.90;;;;;;4993579;28;20035;-78
2023/04/01 05:28:24;;;;;;;1.38;0.70;;;10.90;99.90;;;;;;4989270;28;20050;-74
2023/04/01 05:30:50;;;;;;;2.20;1.35;;;11.00;99.90;;;;;;4980672;28;20202;-73
2023/04/01 05:33:16;;;;;;;1.02;0.70;;;11.00;99.90;;;;;;4989249;28;20069;-73
2023/04/01 05:35:41;;;;;;;1.35;1.20;;;11.10;99.90;;;;;;4990731;28;20031;-73
2023/04/01 05:38:07;;;;;;;2.80;0.70;;;11.10;99.90;;;;;;4992575;28;20046;-73
2023/04/01 05:40:33;;;;;;;0.82;0.60;;;11.20;99.90;;;;;;4988527;28;20045;-74
2023/04/01 05:43:00;;;;;;;1.05;0.70;;;11.20;99.90;;;;;;4984952;28;20734;-75
2023/04/01 05:45:26;;;;;;;2.40;0.70;;;11.20;99.90;;;;;;4986080;28;20044;-77
2023/04/01 05:47:52;;;;;;;2.08;0.90;;;11.40;99.90;;;;;;4981958;28;20745;-65
2023/04/01 05:50:18;;;;;;;0.50;0.50;;;11.50;99.90;;;;;;4984231;28;20054;-65
2023/04/01 05:52:44;;;;;;;1.20;0.40;;;11.50;99.90;;;;;;4989541;28;20090;-65
2023/04/01 05:55:10;;;;;;;0.68;0.52;;;11.60;99.90;;;;;;4990962;28;20060;-66
2023/04/01 05:57:36;;;;;;;3.00;0.50;;;11.70;99.90;;;;;;4983666;28;20038;-66
2023/04/01 06:00:03;;;;;;;2.10;0.30;;;11.80;99.90;;;;;;4994915;28;20517;-66
2023/04/01 06:02:30;;;;;;;1.13;0.40;;;11.80;99.90;;;;;;4990849;28;20111;-66
2023/04/01 06:05:21;;;;;;;1.02;0.60;;;11.90;99.90;;;;;;4981184;28;20491;-67
2023/04/01 06:07:47;;;;;;;4.10;0.80;;;11.90;99.90;;;;;;4992703;28;20046;-66
2023/04/01 06:10:15;;;;;;;2.42;1.65;;;11.90;99.90;;;;;;4987668;28;20089;-66
2023/04/01 06:13:06;;;;;;;0.77;0.40;;;12.10;99.90;;;;;;4973914;28;20072;-66
2023/04/01 06:15:53;;;;;;;4.82;0.68;;;12.30;99.90;;;;;;4989850;28;20045;-66
2023/04/01 06:18:43;;;;;;;2.65;0.80;;;12.40;99.90;;;;;;4988418;28;20029;-68
2023/04/01 06:21:20;;;;;;;1.38;1.08;;;12.40;99.90;;;;;;4986818;28;20053;-66
2023/04/01 06:24:03;;;;;;;3.03;2.00;;;12.50;99.90;;;;;;4995742;28;20099;-66
2023/04/01 06:26:39;;;;;;;4.20;2.22;;;12.50;99.90;;;;;;4995129;28;20782;-66
2023/04/01 06:29:29;;;;;;;4.15;1.35;;;12.60;99.90;;;;;;4996992;28;20134;-66
2023/04/01 06:32:38;;;;;;;1.55;1.10;;;12.60;99.90;;;;;;4988076;28;20495;-66
2023/04/01 06:35:06;;;;;;;2.67;1.90;;;12.50;99.90;;;;;;4989864;28;20033;-66
2023/04/01 06:38:02;;;;;;;2.13;0.80;;;12.50;99.90;;;;;;4997032;28;20099;-66
2023/04/01 06:40:44;;;;;;;2.50;1.30;;;12.50;99.90;;;;;;4993884;28;20037;-67
2023/04/01 06:43:30;;;;;;;;;;;12.40;99.90;;;;;;4994441;28;20049;-66
2023/04/01 06:46:14;;;;;;;3.40;2.40;;;12.30;99.90;;;;;;4993219;28;20366;-66
2023/04/01 06:48:52;;;;;;;5.38;3.25;;;12.30;99.90;;;;;;4994643;28;20045;-66
2023/04/01 06:51:36;;;;;;;10.40;6.03;;;12.30;99.90;;;;;;4998987;28;20046;-67
2023/04/01 06:54:09;;;;;;;1.50;0.63;;;12.40;99.90;;;;;;4989008;28;20090;-65
2023/04/01 06:56:38;;;;;;;2.47;0.70;;;12.50;99.90;;;;;;4996855;28;20084;-65
2023/04/01 06:59:04;;;;;;;3.00;1.08;;;12.50;99.90;;;;;;4994091;28;20064;-66
2023/04/01 07:01:40;;;;;;;1.33;0.70;;;12.60;99.90;;;;;;4986681;28;20144;-66
2023/04/01 07:04:21;;;;;;;3.40;1.17;;;12.80;99.90;;;;;;4987737;28;20129;-65
2023/04/01 07:06:57;;;;;;;4.05;1.80;;;12.90;99.90;;;;;;4991811;28;20108;-65
2023/04/01 07:09:27;;;;;;;1.40;0.80;;;12.90;99.90;;;;;;4989712;28;20085;-65
2023/04/01 07:12:00;;;;;;;1.98;0.60;;;12.80;99.90;;;;;;4995849;28;20566;-65
2023/04/01 07:14:32;;;;;;;1.20;0.60;;;12.90;99.90;;;;;;4987982;28;20130;-65
2023/04/01 07:17:23;;;;;;;1.10;1.00;;;12.90;99.90;;;;;;4990828;28;20129;-65
2023/04/01 07:20:01;;;;;;;1.38;1.17;;;12.80;99.90;;;;;;4963922;28;20072;-66
2023/04/01 07:22:40;;;;;;;1.73;0.70;;;12.90;99.90;;;;;;4994016;28;20034;-66
2023/04/01 07:25:12;;;;;;;2.17;0.88;;;12.90;99.90;;;;;;4988026;28;20061;-66
2023/04/01 07:27:37;;;;;;;2.17;0.73;;;12.80;99.90;;;;;;4989952;28;20152;-66
2023/04/01 07:30:12;;;;;;;1.83;0.80;;;12.80;99.90;;;;;;4993608;28;20041;-65
2023/04/01 07:33:04;;;;;;;1.58;0.65;;;12.70;99.90;;;;;;4974914;28;20128;-64
2023/04/01 07:35:45;;;;;;;1.23;0.60;;;12.50;99.90;;;;;;4988119;28;20033;-66
2023/04/01 07:38:40;;;;;;;1.23;0.77;;;12.60;99.90;;;;;;4984006;28;20038;-64
2023/04/01 07:41:22;;;;;;;0.85;0.40;;;12.70;99.90;;;;;;4988928;28;20443;-72
2023/04/01 07:43:47;;;;;;;;;;;12.80;99.90;;;;;;4985308;28;20048;-72
2023/04/01 07:46:25;;;;;;;0.50;0.50;;;12.80;99.90;;;;;;4973696;28;19977;-73
2023/04/01 07:48:59;;;;;;;1.63;0.85;;;12.80;99.90;;;;;;4986563;28;20053;-72
2023/04/01 07:51:37;;;;;;;0.75;0.40;;;12.80;99.90;;;;;;5010212;28;20419;-71
2023/04/01 07:54:12;;;;;;;1.20;0.60;;;13.00;99.90;;;;;;4999860;28;20042;-71
2023/04/01 07:56:38;;;;;;;1.05;0.45;;;13.10;99.90;;;;;;4995070;28;20403;-72
2023/04/01 07:59:25;;;;;;;0.88;0.57;;;13.20;99.90;;;;;;4988109;28;20046;-71
2023/04/01 08:02:00;;;;;;;1.63;0.50;;;13.10;99.90;;;;;;4989655;28;20452;-65
2023/04/01 08:04:29;;;;;;;2.70;0.47;;;13.10;99.90;;;;;;4981100;28;20029;-66
2023/04/01 08:07:01;;;;;;;1.85;0.70;;;13.00;99.90;;;;;;4993575;28;20046;-65
2023/04/01 08:09:50;;;;;;;1.38;0.77;;;12.90;99.90;;;;;;4992059;28;20048;-66
2023/04/01 08:12:19;;;;;;;0.77;0.55;;;13.10;99.90;;;;;;4994871;28;20042;-66
2023/04/01 08:15:26;;;;;;;0.65;0.43;;;13.20;99.90;;;;;;4983088;28;20105;-66
2023/04/01 08:17:52;;;;;;;1.83;0.70;;;13.20;99.90;;;;;;4982762;28;20042;-67
2023/04/01 08:20:43;;;;;;;2.20;0.63;;;13.40;99.90;;;;;;4989779;28;20030;-74
2023/04/01 08:23:33;;;;;;;1.83;0.55;;;13.40;99.90;;;;;;4971311;28;20624;-72
2023/04/01 08:26:04;;;;;;;1.67;0.40;;;13.40;99.90;;;;;;4984400;28;20129;-73
2023/04/01 08:28:44;;;;;;;0.87;0.40;;;13.20;99.90;;;;;;4989461;28;20048;-73
2023/04/01 08:31:37;;;;;;;2.92;0.40;;;13.20;99.90;;;;;;4989478;28;20026;-73
2023/04/01 08:34:08;;;;;;;1.58;0.52;;;13.20;99.90;;;;;;4987704;28;20566;-73
2023/04/01 08:36:41;;;;;;;0.73;0.47;;;13.20;99.90;;;;;;4983524;28;20074;-74
2023/04/01 08:39:14;;;;;;;2.05;0.60;;;13.00;99.90;;;;;;4976998;28;20491;-67
2023/04/01 08:41:42;;;;;;;0.82;0.43;;;12.90;99.90;;;;;;4972015;28;20041;-68
2023/04/01 08:44:30;;;;;;;1.65;0.32;;;13.00;99.90;;;;;;4969511;28;20549;-67
2023/04/01 08:47:01;;;;;;;1.90;0.45;;;13.10;99.90;;;;;;4961626;28;20050;-75
2023/04/01 08:49:56;;;;;;;1.30;0.50;;;13.20;99.90;;;;;;4977402;28;20042;-74
2023/04/01 08:52:26;;;;;;;0.40;0.20;;;13.40;99.90;;;;;;4979428;28;20056;-75
2023/04/01 08:55:26;;;;;;;1.75;0.40;;;13.60;99.90;;;;;;4982037;28;20040;-76
2023/04/01 08:58:19;;;;;;;0.88;0.50;;;13.70;99.90;;;;;;4937696;28;20057;-66
2023/04/01 09:00:57;;;;;;;0.65;0.55;;;13.80;99.90;;;;;;4980477;28;20053;-66
2023/04/01 09:03:48;;;;;;;0.95;0.40;;;13.60;99.90;;;;;;4985004;28;20118;-66
2023/04/01 09:06:32;;;;;;;4.50;0.30;;;13.60;99.90;;;;;;4988978;28;20034;-66
2023/04/01 09:09:35;;;;;;;1.00;0.40;;;13.60;99.90;;;;;;4993182;28;20529;-65
2023/04/01 09:12:45;;;;;;;1.70;0.30;;;13.70;99.90;;;;;;4987081;28;20054;-64
2023/04/01 09:15:31;;;;;;;1.20;0.30;;;13.50;99.90;;;;;;4988468;28;20042;-65
2023/04/01 09:18:21;;;;;;;1.23;0.43;;;13.30;99.90;;;;;;4986169;28;20124;-72
2023/04/01 09:21:01;;;;;;;2.55;0.60;;;13.50;99.90;;;;;;4982467;28;20065;-70
2023/04/01 09:23:47;;;;;;;1.25;0.40;;;13.30;99.90;;;;;;4988865;28;20030;-70
2023/04/01 09:26:22;;;;;;;0.98;0.40;;;13.20;99.90;;;;;;4987421;28;20053;-72
2023/04/01 09:28:54;;;;;;;0.70;0.40;;;13.20;99.90;;;;;;4985669;28;20053;-72
2023/04/01 09:31:23;;;;;;;0.85;0.43;;;13.20;99.90;;;;;;4988101;28;20085;-72
2023/04/01 09:34:28;;;;;;;0.77;0.40;;;13.20;99.90;;;;;;4980845;28;20042;-72
2023/04/01 09:37:14;;;;;;;1.42;0.60;;;13.10;99.90;;;;;;4983323;28;20045;-72
2023/04/01 09:40:08;;;;;;;0.85;0.50;;;13.10;99.90;;;;;;4989841;28;20042;-72
2023/04/01 09:42:44;;;;;;;3.10;1.00;;;13.20;99.90;;;;;;4999627;28;20486;-73
2023/04/01 09:45:25;;;;;;;0.93;0.40;;;13.40;99.90;;;;;;4983069;28;20038;-72
2023/04/01 09:48:15;;;;;;;0.80;0.60;;;13.50;99.90;;;;;;4984249;28;20045;-72
2023/04/01 09:51:03;;;;;;;1.55;0.70;;;13.60;99.90;;;;;;4983002;28;20104;-72
2023/04/01 09:54:08;;;;;;;0.47;0.28;;;13.80;99.90;;;;;;4988500;28;20041;-70
2023/04/01 09:57:01;;;;;;;8.23;0.57;;;13.80;99.90;;;;;;4986754;28;20064;-66
2023/04/01 10:00:04;;;;;;;3.15;0.52;;;13.80;99.90;;;;;;4962134;28;20092;-69
2023/04/01 10:03:18;;;;;;;2.67;0.68;;;13.90;99.90;;;;;;4981623;28;20042;-65
2023/04/01 10:06:11;;;;;;;2.65;0.40;;;13.80;99.90;;;;;;4976248;28;20079;-72
2023/04/01 10:08:59;;;;;;;1.23;0.63;;;13.80;99.90;;;;;;4982802;28;20506;-75
2023/04/01 10:11:36;;;;;;;2.45;0.70;;;13.60;99.90;;;;;;4983044;28;20570;-72
2023/04/01 10:14:14;;;;;;;0.90;0.40;;;13.50;99.90;;;;;;4966750;28;20039;-70
2023/04/01 10:16:56;;;;;;;3.50;0.65;;;13.50;99.90;;;;;;4968924;28;20029;-69
2023/04/01 10:19:37;;;;;;;0.63;0.32;;;13.40;99.90;;;;;;4979906;28;20045;-71
2023/04/01 10:22:21;;;;;;;1.80;0.50;;;13.50;99.90;;;;;;4982941;28;20045;-70
2023/04/01 10:25:14;;;;;;;2.42;0.70;;;13.50;99.90;;;;;;4986190;28;20368;-71
2023/04/01 10:28:17;;;;;;;1.58;0.45;;;13.60;99.90;;;;;;4983687;28;20046;-69
2023/04/01 10:31:04;;;;;;;0.63;0.40;;;13.70;99.90;;;;;;4981490;28;20034;-69
2023/04/01 10:34:09;;;;;;;1.85;0.43;;;13.80;99.90;;;;;;4983750;28;20422;-71
2023/04/01 10:36:55;;;;;;;1.70;1.15;;;14.00;99.90;;;;;;4983463;28;20042;-70
2023/04/01 10:39:55;;;;;;;4.70;0.40;;;13.90;99.90;;;;;;4998584;28;20552;-69
2023/04/01 10:42:49;;;;;;;1.38;0.30;;;13.70;99.90;;;;;;4984217;28;20149;-68
2023/04/01 10:45:53;;;;;;;0.75;0.50;;;13.50;99.90;;;;;;4980509;28;20049;-70
2023/04/01 10:48:40;;;;;;;1.67;0.40;;;13.30;99.90;;;;;;4871155;29;20588;-70
2023/04/01 10:51:43;;;;;;;1.40;0.55;;;13.40;99.90;;;;;;4881502;29;20056;-67
2023/04/01 10:54:37;;;;;;;0.65;0.25;;;13.40;99.90;;;;;;4931887;28;20038;-67
2023/04/01 10:57:34;;;;;;;1.75;0.98;;;13.50;99.90;;;;;;4993736;28;20125;-67
2023/04/01 11:00:42;;;;;;;1.55;0.60;;;13.60;99.90;;;;;;4992519;28;20034;-67
2023/04/01 11:03:32;;;;;;;1.45;0.60;;;13.70;99.90;;;;;;4975793;28;20042;-67
2023/04/01 11:06:26;;;;;;;2.67;0.52;;;13.80;99.90;;;;;;4994321;28;20046;-66
2023/04/01 11:09:01;;;;;;;1.25;0.50;;;13.90;99.90;;;;;;4957810;28;20085;-67
2023/04/01 11:12:04;;;;;;;1.02;0.52;;;13.90;99.90;;;;;;4981865;28;20551;-74
2023/04/01 11:14:41;;;;;;;1.63;0.30;;;13.80;99.90;;;;;;4976344;28;20566;-73
2023/04/01 11:17:22;;;;;;;1.63;0.50;;;13.80;99.90;;;;;;4958160;28;20133;-75
2023/04/01 11:20:11;;;;;;;1.55;0.40;;;13.80;99.90;;;;;;4965334;28;20115;-75
2023/04/01 11:22:52;;;;;;;1.60;0.43;;;14.00;99.90;;;;;;4989467;28;20073;-75
2023/04/01 11:25:46;;;;;;;0.93;0.50;;;14.00;99.90;;;;;;4975294;28;20569;-79
2023/04/01 11:28:26;;;;;;;0.60;0.40;;;14.10;99.90;;;;;;4975077;28;20054;-74
2023/04/01 11:31:14;;;;;;;0.40;0.17;;;14.10;99.90;;;;;;4970635;28;20088;-65
2023/04/01 11:34:14;;;;;;;1.13;0.30;;;13.90;99.90;;;;;;4977978;28;20042;-65
2023/04/01 11:36:45;;;;;;;1.42;0.50;;;13.90;99.90;;;;;;4976323;28;20057;-67
2023/04/01 11:39:29;;;;;;;0.35;0.30;;;13.80;99.90;;;;;;4974131;28;20104;-66
2023/04/01 11:42:25;;;;;;;1.45;0.63;;;13.80;99.90;;;;;;4980091;28;20053;-64
2023/04/01 11:44:57;;;;;;;1.20;0.40;;;13.70;99.90;;;;;;4978476;28;20066;-66
2023/04/01 11:47:39;;;;;;;2.03;0.40;;;13.60;99.90;;;;;;4967611;28;20043;-66
2023/04/01 11:50:27;;;;;;;1.80;0.50;;;13.60;99.90;;;;;;4980624;28;20678;-66
2023/04/01 11:53:14;;;;;;;1.95;0.30;;;13.50;99.90;;;;;;4980366;28;20154;-65
2023/04/01 11:55:51;;;;;;;2.30;0.80;;;13.60;99.90;;;;;;4976694;28;20038;-66
2023/04/01 11:58:19;;;;;;;1.15;0.30;;;13.70;99.90;;;;;;4960069;28;20130;-66
2023/04/01 12:01:12;;;;;;;1.45;0.52;;;13.70;99.90;;;;;;4973228;28;20045;-66
2023/04/01 12:03:43;;;;;;;0.73;0.30;;;13.80;99.90;;;;;;4966335;28;20031;-66
2023/04/01 12:06:36;;;;;;;2.78;0.30;;;13.90;99.90;;;;;;4967798;28;21005;-66
2023/04/01 12:09:32;;;;;;;1.02;0.40;;;13.80;99.90;;;;;;4966753;28;20126;-69
2023/04/01 12:12:20;;;;;;;1.33;0.32;;;13.80;99.90;;;;;;4977188;28;20046;-69
2023/04/01 12:14:55;;;;;;;1.77;0.40;;;13.90;99.90;;;;;;4980875;28;20038;-69
2023/04/01 12:17:45;;;;;;;2.00;0.57;;;14.00;99.90;;;;;;4984309;28;21023;-69
2023/04/01 12:20:30;;;;;;;2.05;0.55;;;14.00;99.90;;;;;;4980264;28;20182;-69
2023/04/01 12:23:17;;;;;;;2.08;0.60;;;13.90;99.90;;;;;;4986103;28;20120;-69
2023/04/01 12:26:24;;;;;;;0.73;0.40;;;14.00;99.90;;;;;;4978398;28;20029;-70
2023/04/01 12:29:31;;;;;;;4.93;2.65;;;14.10;99.90;;;;;;4985609;28;20049;-68
2023/04/01 12:32:25;;;;;;;2.08;0.60;;;14.20;99.90;;;;;;4984479;28;20069;-67
2023/04/01 12:35:25;;;;;;;1.85;1.38;;;14.40;99.90;;;;;;4976820;28;20052;-68
2023/04/01 12:38:05;;;;;;;38.90;26.60;;;14.60;99.90;;;;;;4991231;28;20168;-68
2023/04/01 12:40:46;;;;;;;5.25;3.58;;;14.60;99.90;;;;;;4990676;28;20026;-69
2023/04/01 12:43:26;;;;;;;39.28;26.60;;;14.60;99.90;;;;;;4973150;28;20804;-67
2023/04/01 12:46:01;;;;;;;47.25;33.40;;;14.50;99.90;;;;;;4986251;28;20053;-68
2023/04/01 12:48:33;;;;;;;12.93;10.00;;;14.50;99.90;;;;;;4986074;28;20559;-69
2023/04/01 12:51:01;;;;;;;;;;;14.60;99.90;;;;;;4991822;28;20033;-69
2023/04/01 12:53:55;;;;;;;3.22;0.90;;;14.60;99.90;;;;;;4996977;28;19913;-70
2023/04/01 12:56:38;;;;;;;6.47;4.35;;;14.60;99.90;;;;;;4993108;28;20113;-71
2023/04/01 12:59:25;;;;;;;2.65;0.85;;;14.70;99.90;;;;;;4995450;28;20069;-71
2023/04/01 13:02:02;;;;;;;5.57;3.95;;;14.70;99.90;;;;;;4997269;28;20628;-69
2023/04/01 13:04:33;;;;;;;8.70;2.00;;;14.70;99.90;;;;;;4993179;28;20092;-71
2023/04/01 13:07:23;;;;;;;2.35;1.55;;;14.70;99.90;;;;;;4993582;28;20498;-72
2023/04/01 13:09:54;;;;;;;3.78;1.20;;;14.70;99.90;;;;;;4999088;28;20038;-70
2023/04/01 13:12:48;;;;;;;3.57;1.70;;;14.70;99.90;;;;;;4978161;28;20050;-70
2023/04/01 13:15:18;;;;;;;0.32;0.30;;;14.80;99.90;;;;;;4974126;28;20318;-71
2023/04/01 13:18:22;;;;;;;4.35;3.70;;;14.90;99.90;;;;;;4978188;28;20603;-71
2023/04/01 13:21:10;;;;;;;1.77;1.00;;;15.10;99.90;;;;;;4976374;28;20039;-71
2023/04/01 13:23:41;;;;;;;1.98;1.17;;;15.30;99.90;;;;;;4974611;28;20030;-71
2023/04/01 13:26:18;;;;;;;2.65;2.00;;;15.20;99.90;;;;;;4971253;28;20030;-72
2023/04/01 13:28:52;;;;;;;5.85;2.35;;;15.10;99.90;;;;;;4973052;28;20105;-72
2023/04/01 13:31:51;;;;;;;1.27;0.70;;;15.10;99.90;;;;;;4975794;28;20479;-72
2023/04/01 13:34:39;;;;;;;1.17;0.40;;;15.20;99.90;;;;;;4964550;28;20072;-71
2023/04/01 13:37:05;;;;;;;1.23;0.98;;;15.10;99.90;;;;;;4975354;28;20409;-72